sensor_id;sensor_type;location;lat;lon;timestamp;temperature;humidity
31387;DHT22;69978;50.096;8.448;2023-08-06T00:02:05;16.20;99.90
31387;DHT22;69978;50.096;8.448;2023-08-06T00:04:30;16.20;99.90
31387;DHT22;69978;50.096;8.448;2023-08-06T00:06:56;16.30;99.90
31387;DHT22;69978;50.096;8.448;2023-08-06T00:09:21;16.30;99.90
31387;DHT22;69978;50.096;8.448;2023-08-06T00:11:47;16.30;99.90
31387;DHT22;69978;50.096;8.448;2023-08-06T00:14:13;16.30;99.90
31387;DHT22;69978;50.096;8.448;2023-08-06T00:16:43;16.20;99.90
31387;DHT22;69978;50.096;8.448;2023-08-06T00:19:08;16.20;99.90
31387;DHT22;69978;50.096;8.448;2023-08-06T00:21:34;16.20;99.90
31387;DHT22;69978;50.096;8.448;2023-08-06T00:24:00;16.10;99.90
31387;DHT22;69978;50.096;8.448;2023-08-06T00:26:25;16.20;99.90
31387;DHT22;69978;50.096;8.448;2023-08-06T00:28:51;16.20;99.90
31387;DHT22;69978;50.096;8.448;2023-08-06T00:31:17;16.20;99.90
31387;DHT22;69978;50.096;8.448;2023-08-06T00:33:42;16.20;99.90
31387;DHT22;69978;50.096;8.448;2023-08-06T00:36:08;16.20;99.90
31387;DHT22;69978;50.096;8.448;2023-08-06T00:38:33;16.20;99.90
31387;DHT22;69978;50.096;8.448;2023-08-06T00:40:59;16.20;99.90
31387;DHT22;69978;50.096;8.448;2023-08-06T00:43:24;16.20;99.90
31387;DHT22;69978;50.096;8.448;2023-08-06T00:45:50;16.10;99.90
31387;DHT22;69978;50.096;8.448;2023-08-06T00:48:16;16.10;99.90
31387;DHT22;69978;50.096;8.448;2023-08-06T00:50:41;16.10;99.90
31387;DHT22;69978;50.096;8.448;2023-08-06T00:53:07;16.10;99.90
31387;DHT22;69978;50.096;8.448;2023-08-06T00:55:33;16.20;99.90
31387;DHT22;69978;50.096;8.448;2023-08-06T00:57:59;16.20;99.90
31387;DHT22;69978;50.096;8.448;2023-08-06T01:00:25;16.20;99.90
31387;DHT22;69978;50.096;8.448;2023-08-06T01:02:52;16.10;99.90
31387;DHT22;69978;50.096;8.448;2023-08-06T01:05:18;16.10;99.90
31387;DHT22;69978;50.096;8.448;2023-08-06T01:08:13;16.10;99.90
31387;DHT22;69978;50.096;8.448;2023-08-06T01:13:45;16.00;99.90
31387;DHT22;69978;50.096;8.448;2023-08-06T01:16:15;16.10;99.90
31387;DHT22;69978;50.096;8.448;2023-08-06T01:18:41;16.10;99.90
31387;DHT22;69978;50.096;8.448;2023-08-06T01:21:12;16.00;99.90
31387;DHT22;69978;50.096;8.448;2023-08-06T01:23:38;16.00;99.90
31387;DHT22;69978;50.096;8.448;2023-08-06T01:26:30;16.00;99.90
31387;DHT22;69978;50.096;8.448;2023-08-06T01:31:32;16.00;99.90
31387;DHT22;69978;50.096;8.448;2023-08-06T01:34:01;16.00;99.90
31387;DHT22;69978;50.096;8.448;2023-08-06T01:36:28;15.90;99.90
31387;DHT22;69978;50.096;8.448;2023-08-06T01:38:54;15.90;99.90
31387;DHT22;69978;50.096;8.448;2023-08-06T01:41:20;16.00;99.90
31387;DHT22;69978;50.096;8.448;2023-08-06T01:43:46;16.00;99.90
31387;DHT22;69978;50.096;8.448;2023-08-06T01:46:11;15.90;99.90
31387;DHT22;69978;50.096;8.448;2023-08-06T01:48:37;16.00;99.90
31387;DHT22;69978;50.096;8.448;2023-08-06T01:51:06;16.00;99.90
31387;DHT22;69978;50.096;8.448;2023-08-06T01:53:32;15.90;99.90
31387;DHT22;69978;50.096;8.448;2023-08-06T01:55:58;16.00;99.90
31387;DHT22;69978;50.096;8.448;2023-08-06T01:58:23;15.90;99.90
31387;DHT22;69978;50.096;8.448;2023-08-06T02:00:49;15.90;99.90
31387;DHT22;69978;50.096;8.448;2023-08-06T02:03:15;15.90;99.90
31387;DHT22;69978;50.096;8.448;2023-08-06T02:05:41;15.90;99.90
31387;DHT22;69978;50.096;8.448;2023-08-06T02:08:06;15.90;99.90
31387;DHT22;69978;50.096;8.448;2023-08-06T02:10:32;15.90;99.90
31387;DHT22;69978;50.096;8.448;2023-08-06T02:12:57;15.90;99.90
31387;DHT22;69978;50.096;8.448;2023-08-06T02:15:23;15.90;99.90
31387;DHT22;69978;50.096;8.448;2023-08-06T02:17:49;15.90;99.90
31387;DHT22;69978;50.096;8.448;2023-08-06T02:20:14;16.00;99.90
31387;DHT22;69978;50.096;8.448;2023-08-06T02:22:40;15.90;99.90
31387;DHT22;69978;50.096;8.448;2023-08-06T02:25:05;16.00;99.90
31387;DHT22;69978;50.096;8.448;2023-08-06T02:27:31;15.90;99.90
31387;DHT22;69978;50.096;8.448;2023-08-06T02:29:57;15.90;99.90
31387;DHT22;69978;50.096;8.448;2023-08-06T02:32:22;15.90;99.90
31387;DHT22;69978;50.096;8.448;2023-08-06T02:34:48;15.90;99.90
31387;DHT22;69978;50.096;8.448;2023-08-06T02:37:13;15.80;99.90
31387;DHT22;69978;50.096;8.448;2023-08-06T02:39:39;15.80;99.90
31387;DHT22;69978;50.096;8.448;2023-08-06T02:42:07;15.80;99.90
31387;DHT22;69978;50.096;8.448;2023-08-06T02:44:33;15.70;99.90
31387;DHT22;69978;50.096;8.448;2023-08-06T02:46:59;15.70;99.90
31387;DHT22;69978;50.096;8.448;2023-08-06T02:49:25;15.70;99.90
31387;DHT22;69978;50.096;8.448;2023-08-06T02:51:50;15.70;99.90
31387;DHT22;69978;50.096;8.448;2023-08-06T02:54:16;15.70;99.90
31387;DHT22;69978;50.096;8.448;2023-08-06T02:56:45;15.70;99.90
31387;DHT22;69978;50.096;8.448;2023-08-06T02:59:12;15.80;99.90
31387;DHT22;69978;50.096;8.448;2023-08-06T03:01:38;15.70;99.90
31387;DHT22;69978;50.096;8.448;2023-08-06T03:04:04;15.70;99.90
31387;DHT22;69978;50.096;8.448;2023-08-06T03:06:30;15.70;99.90
31387;DHT22;69978;50.096;8.448;2023-08-06T03:08:55;15.70;99.90
31387;DHT22;69978;50.096;8.448;2023-08-06T03:11:21;15.70;99.90
31387;DHT22;69978;50.096;8.448;2023-08-06T03:13:49;15.70;99.90
31387;DHT22;69978;50.096;8.448;2023-08-06T03:16:15;15.80;99.90
31387;DHT22;69978;50.096;8.448;2023-08-06T03:18:40;15.70;99.90
31387;DHT22;69978;50.096;8.448;2023-08-06T03:21:06;15.70;99.90
31387;DHT22;69978;50.096;8.448;2023-08-06T03:23:32;15.70;99.90
31387;DHT22;69978;50.096;8.448;2023-08-06T03:26:03;15.70;99.90
31387;DHT22;69978;50.096;8.448;2023-08-06T03:28:29;15.70;99.90
31387;DHT22;69978;50.096;8.448;2023-08-06T03:31:04;15.70;99.90
31387;DHT22;69978;50.096;8.448;2023-08-06T03:33:30;15.70;99.90
31387;DHT22;69978;50.096;8.448;2023-08-06T03:35:55;15.70;99.90
31387;DHT22;69978;50.096;8.448;2023-08-06T03:38:21;15.80;99.90
31387;DHT22;69978;50.096;8.448;2023-08-06T03:40:48;15.80;99.90
31387;DHT22;69978;50.096;8.448;2023-08-06T03:43:13;15.90;99.90
31387;DHT22;69978;50.096;8.448;2023-08-06T03:45:40;15.80;99.90
31387;DHT22;69978;50.096;8.448;2023-08-06T03:48:06;15.90;99.90
31387;DHT22;69978;50.096;8.448;2023-08-06T03:50:32;15.90;99.90
31387;DHT22;69978;50.096;8.448;2023-08-06T03:52:57;15.90;99.90
31387;DHT22;69978;50.096;8.448;2023-08-06T03:55:23;15.90;99.90
31387;DHT22;69978;50.096;8.448;2023-08-06T03:57:48;15.90;99.90
31387;DHT22;69978;50.096;8.448;2023-08-06T04:00:14;15.90;99.90
31387;DHT22;69978;50.096;8.448;2023-08-06T04:02:39;15.80;99.90
31387;DHT22;69978;50.096;8.448;2023-08-06T04:05:05;15.80;99.90
31387;DHT22;69978;50.096;8.448;2023-08-06T04:07:31;15.80;99.90
31387;DHT22;69978;50.096;8.448;2023-08-06T04:10:01;15.80;99.90
31387;DHT22;69978;50.096;8.448;2023-08-06T04:12:27;15.80;99.90
31387;DHT22;69978;50.096;8.448;2023-08-06T04:14:53;15.80;99.90
31387;DHT22;69978;50.096;8.448;2023-08-06T04:17:19;15.80;99.90
31387;DHT22;69978;50.096;8.448;2023-08-06T04:19:50;15.80;99.90
31387;DHT22;69978;50.096;8.448;2023-08-06T04:22:15;15.80;99.90
31387;DHT22;69978;50.096;8.448;2023-08-06T04:24:41;15.80;99.90
31387;DHT22;69978;50.096;8.448;2023-08-06T04:27:09;15.80;99.90
31387;DHT22;69978;50.096;8.448;2023-08-06T04:29:34;15.80;99.90
31387;DHT22;69978;50.096;8.448;2023-08-06T04:32:00;15.80;99.90
31387;DHT22;69978;50.096;8.448;2023-08-06T04:34:26;15.80;99.90
31387;DHT22;69978;50.096;8.448;2023-08-06T04:36:51;15.70;99.90
31387;DHT22;69978;50.096;8.448;2023-08-06T04:39:17;15.80;99.90
31387;DHT22;69978;50.096;8.448;2023-08-06T04:41:42;15.70;99.90
31387;DHT22;69978;50.096;8.448;2023-08-06T04:44:08;15.70;99.90
31387;DHT22;69978;50.096;8.448;2023-08-06T04:46:34;15.60;99.90
31387;DHT22;69978;50.096;8.448;2023-08-06T04:48:59;15.60;99.90
31387;DHT22;69978;50.096;8.448;2023-08-06T04:51:25;15.50;99.90
31387;DHT22;69978;50.096;8.448;2023-08-06T04:53:50;15.60;99.90
31387;DHT22;69978;50.096;8.448;2023-08-06T04:56:16;15.50;99.90
31387;DHT22;69978;50.096;8.448;2023-08-06T04:58:41;15.60;99.90
31387;DHT22;69978;50.096;8.448;2023-08-06T05:01:07;15.60;99.90
31387;DHT22;69978;50.096;8.448;2023-08-06T05:03:33;15.50;99.90
31387;DHT22;69978;50.096;8.448;2023-08-06T05:05:58;15.50;99.90
31387;DHT22;69978;50.096;8.448;2023-08-06T05:08:24;15.50;99.90
31387;DHT22;69978;50.096;8.448;2023-08-06T05:10:49;15.40;99.90
31387;DHT22;69978;50.096;8.448;2023-08-06T05:13:15;15.30;99.90
31387;DHT22;69978;50.096;8.448;2023-08-06T05:15:41;15.30;99.90
31387;DHT22;69978;50.096;8.448;2023-08-06T05:18:08;15.30;99.90
31387;DHT22;69978;50.096;8.448;2023-08-06T05:20:40;15.30;99.90
31387;DHT22;69978;50.096;8.448;2023-08-06T05:23:06;15.30;99.90
31387;DHT22;69978;50.096;8.448;2023-08-06T05:25:33;15.20;99.90
31387;DHT22;69978;50.096;8.448;2023-08-06T05:27:59;15.20;99.90
31387;DHT22;69978;50.096;8.448;2023-08-06T05:30:27;15.20;99.90
31387;DHT22;69978;50.096;8.448;2023-08-06T05:32:52;15.20;99.90
31387;DHT22;69978;50.096;8.448;2023-08-06T05:35:18;15.20;99.90
31387;DHT22;69978;50.096;8.448;2023-08-06T05:37:43;15.20;99.90
31387;DHT22;69978;50.096;8.448;2023-08-06T05:40:09;15.10;99.90
31387;DHT22;69978;50.096;8.448;2023-08-06T05:42:34;15.10;99.90
31387;DHT22;69978;50.096;8.448;2023-08-06T05:45:00;15.10;99.90
31387;DHT22;69978;50.096;8.448;2023-08-06T05:47:26;15.10;99.90
31387;DHT22;69978;50.096;8.448;2023-08-06T05:49:51;15.10;99.90
31387;DHT22;69978;50.096;8.448;2023-08-06T05:52:17;15.10;99.90
31387;DHT22;69978;50.096;8.448;2023-08-06T05:54:42;15.10;99.90
31387;DHT22;69978;50.096;8.448;2023-08-06T05:57:08;15.20;99.90
31387;DHT22;69978;50.096;8.448;2023-08-06T05:59:33;15.20;99.90
31387;DHT22;69978;50.096;8.448;2023-08-06T06:01:59;15.10;99.90
31387;DHT22;69978;50.096;8.448;2023-08-06T06:04:25;15.10;99.90
31387;DHT22;69978;50.096;8.448;2023-08-06T06:06:50;15.10;99.90
31387;DHT22;69978;50.096;8.448;2023-08-06T06:09:16;15.20;99.90
31387;DHT22;69978;50.096;8.448;2023-08-06T06:11:42;15.20;99.90
31387;DHT22;69978;50.096;8.448;2023-08-06T06:14:07;15.10;99.90
31387;DHT22;69978;50.096;8.448;2023-08-06T06:16:34;15.20;99.90
31387;DHT22;69978;50.096;8.448;2023-08-06T06:18:59;15.10;99.90
31387;DHT22;69978;50.096;8.448;2023-08-06T06:21:25;15.10;99.90
31387;DHT22;69978;50.096;8.448;2023-08-06T06:23:51;15.00;99.90
31387;DHT22;69978;50.096;8.448;2023-08-06T06:26:18;15.00;99.90
31387;DHT22;69978;50.096;8.448;2023-08-06T06:28:43;15.00;99.90
31387;DHT22;69978;50.096;8.448;2023-08-06T06:31:09;15.00;99.90
31387;DHT22;69978;50.096;8.448;2023-08-06T06:33:35;15.00;99.90
31387;DHT22;69978;50.096;8.448;2023-08-06T06:36:01;15.00;99.90
31387;DHT22;69978;50.096;8.448;2023-08-06T06:38:28;15.00;99.90
31387;DHT22;69978;50.096;8.448;2023-08-06T06:40:55;15.00;99.90
31387;DHT22;69978;50.096;8.448;2023-08-06T06:43:21;15.00;99.90
31387;DHT22;69978;50.096;8.448;2023-08-06T06:45:46;15.00;99.90
31387;DHT22;69978;50.096;8.448;2023-08-06T06:48:12;15.00;99.90
31387;DHT22;69978;50.096;8.448;2023-08-06T06:50:37;15.00;99.90
31387;DHT22;69978;50.096;8.448;2023-08-06T06:53:04;15.00;99.90
31387;DHT22;69978;50.096;8.448;2023-08-06T06:55:30;14.90;99.90
31387;DHT22;69978;50.096;8.448;2023-08-06T06:57:55;15.00;99.90
31387;DHT22;69978;50.096;8.448;2023-08-06T07:00:21;14.90;99.90
31387;DHT22;69978;50.096;8.448;2023-08-06T07:02:46;14.90;99.90
31387;DHT22;69978;50.096;8.448;2023-08-06T07:05:12;14.90;99.90
31387;DHT22;69978;50.096;8.448;2023-08-06T07:07:37;14.80;99.90
31387;DHT22;69978;50.096;8.448;2023-08-06T07:10:03;14.80;99.90
31387;DHT22;69978;50.096;8.448;2023-08-06T07:12:29;14.90;99.90
31387;DHT22;69978;50.096;8.448;2023-08-06T07:14:54;14.80;99.90
31387;DHT22;69978;50.096;8.448;2023-08-06T07:17:20;14.80;99.90
31387;DHT22;69978;50.096;8.448;2023-08-06T07:19:46;14.70;99.90
31387;DHT22;69978;50.096;8.448;2023-08-06T07:22:11;14.80;99.90
31387;DHT22;69978;50.096;8.448;2023-08-06T07:24:37;14.90;99.90
31387;DHT22;69978;50.096;8.448;2023-08-06T07:27:03;14.90;99.90
31387;DHT22;69978;50.096;8.448;2023-08-06T07:29:28;14.80;99.90
31387;DHT22;69978;50.096;8.448;2023-08-06T07:31:54;14.90;99.90
31387;DHT22;69978;50.096;8.448;2023-08-06T07:34:20;14.90;99.90
31387;DHT22;69978;50.096;8.448;2023-08-06T07:36:46;14.90;99.90
31387;DHT22;69978;50.096;8.448;2023-08-06T07:39:12;14.90;99.90
31387;DHT22;69978;50.096;8.448;2023-08-06T07:41:37;14.90;99.90
31387;DHT22;69978;50.096;8.448;2023-08-06T07:44:04;15.00;99.90
31387;DHT22;69978;50.096;8.448;2023-08-06T07:46:29;15.00;99.90
31387;DHT22;69978;50.096;8.448;2023-08-06T07:48:55;15.10;99.90
31387;DHT22;69978;50.096;8.448;2023-08-06T07:51:20;15.10;99.90
31387;DHT22;69978;50.096;8.448;2023-08-06T07:53:46;15.10;99.90
31387;DHT22;69978;50.096;8.448;2023-08-06T07:56:12;15.10;99.90
31387;DHT22;69978;50.096;8.448;2023-08-06T07:58:37;15.10;99.90
31387;DHT22;69978;50.096;8.448;2023-08-06T08:01:03;15.20;99.90
31387;DHT22;69978;50.096;8.448;2023-08-06T08:03:29;15.20;99.90
31387;DHT22;69978;50.096;8.448;2023-08-06T08:05:55;15.20;99.90
31387;DHT22;69978;50.096;8.448;2023-08-06T08:08:24;15.30;99.90
31387;DHT22;69978;50.096;8.448;2023-08-06T08:10:49;15.40;99.90
31387;DHT22;69978;50.096;8.448;2023-08-06T08:13:15;15.40;99.90
31387;DHT22;69978;50.096;8.448;2023-08-06T08:15:41;15.50;99.90
31387;DHT22;69978;50.096;8.448;2023-08-06T08:18:06;15.40;99.90
31387;DHT22;69978;50.096;8.448;2023-08-06T08:20:32;15.50;99.90
31387;DHT22;69978;50.096;8.448;2023-08-06T08:22:59;15.40;99.90
31387;DHT22;69978;50.096;8.448;2023-08-06T08:25:25;15.40;99.90
31387;DHT22;69978;50.096;8.448;2023-08-06T08:27:52;15.50;99.90
31387;DHT22;69978;50.096;8.448;2023-08-06T08:30:18;15.50;99.90
31387;DHT22;69978;50.096;8.448;2023-08-06T08:32:43;15.50;99.90
31387;DHT22;69978;50.096;8.448;2023-08-06T08:35:09;15.60;99.90
31387;DHT22;69978;50.096;8.448;2023-08-06T08:37:35;15.60;99.90
31387;DHT22;69978;50.096;8.448;2023-08-06T08:40:01;15.60;99.90
31387;DHT22;69978;50.096;8.448;2023-08-06T08:42:28;15.70;99.90
31387;DHT22;69978;50.096;8.448;2023-08-06T08:44:54;15.80;99.90
31387;DHT22;69978;50.096;8.448;2023-08-06T08:47:21;15.90;99.90
31387;DHT22;69978;50.096;8.448;2023-08-06T08:49:47;16.10;99.90
31387;DHT22;69978;50.096;8.448;2023-08-06T08:52:14;16.30;99.90
31387;DHT22;69978;50.096;8.448;2023-08-06T08:54:40;16.40;99.90
31387;DHT22;69978;50.096;8.448;2023-08-06T08:57:06;16.50;99.90
31387;DHT22;69978;50.096;8.448;2023-08-06T08:59:34;16.60;99.90
31387;DHT22;69978;50.096;8.448;2023-08-06T09:02:01;16.70;99.90
31387;DHT22;69978;50.096;8.448;2023-08-06T09:04:29;16.60;99.90
31387;DHT22;69978;50.096;8.448;2023-08-06T09:06:58;16.50;99.90
31387;DHT22;69978;50.096;8.448;2023-08-06T09:09:34;16.50;99.90
31387;DHT22;69978;50.096;8.448;2023-08-06T09:12:11;16.60;99.90
31387;DHT22;69978;50.096;8.448;2023-08-06T09:14:37;16.60;99.90
31387;DHT22;69978;50.096;8.448;2023-08-06T09:17:04;16.90;99.90
31387;DHT22;69978;50.096;8.448;2023-08-06T09:19:30;17.20;99.90
31387;DHT22;69978;50.096;8.448;2023-08-06T09:21:56;17.50;99.90
31387;DHT22;69978;50.096;8.448;2023-08-06T09:24:22;17.90;99.90
31387;DHT22;69978;50.096;8.448;2023-08-06T09:26:48;18.40;99.90
31387;DHT22;69978;50.096;8.448;2023-08-06T09:29:14;18.80;99.90
31387;DHT22;69978;50.096;8.448;2023-08-06T09:31:43;19.00;99.90
31387;DHT22;69978;50.096;8.448;2023-08-06T09:34:18;19.30;99.90
31387;DHT22;69978;50.096;8.448;2023-08-06T09:36:54;19.40;99.90
31387;DHT22;69978;50.096;8.448;2023-08-06T09:39:21;19.40;99.90
31387;DHT22;69978;50.096;8.448;2023-08-06T09:41:47;19.30;99.90
31387;DHT22;69978;50.096;8.448;2023-08-06T09:44:17;19.40;99.90
31387;DHT22;69978;50.096;8.448;2023-08-06T09:46:53;19.20;99.90
31387;DHT22;69978;50.096;8.448;2023-08-06T09:49:19;19.20;99.90
31387;DHT22;69978;50.096;8.448;2023-08-06T09:51:46;19.00;99.90
31387;DHT22;69978;50.096;8.448;2023-08-06T09:54:16;18.50;99.90
31387;DHT22;69978;50.096;8.448;2023-08-06T09:56:42;18.30;99.90
31387;DHT22;69978;50.096;8.448;2023-08-06T09:59:08;18.40;99.90
31387;DHT22;69978;50.096;8.448;2023-08-06T10:01:35;18.60;99.90
31387;DHT22;69978;50.096;8.448;2023-08-06T10:04:02;18.80;99.90
31387;DHT22;69978;50.096;8.448;2023-08-06T10:06:29;18.60;99.90
31387;DHT22;69978;50.096;8.448;2023-08-06T10:08:55;18.50;99.90
31387;DHT22;69978;50.096;8.448;2023-08-06T10:11:24;18.40;99.90
31387;DHT22;69978;50.096;8.448;2023-08-06T10:14:04;18.40;99.90
31387;DHT22;69978;50.096;8.448;2023-08-06T10:16:32;18.30;99.90
31387;DHT22;69978;50.096;8.448;2023-08-06T10:18:58;18.40;99.90
31387;DHT22;69978;50.096;8.448;2023-08-06T10:21:24;18.60;99.90
31387;DHT22;69978;50.096;8.448;2023-08-06T10:23:56;18.70;99.90
31387;DHT22;69978;50.096;8.448;2023-08-06T10:26:26;18.90;99.90
31387;DHT22;69978;50.096;8.448;2023-08-06T10:28:52;19.20;99.90
31387;DHT22;69978;50.096;8.448;2023-08-06T10:31:18;19.20;99.90
31387;DHT22;69978;50.096;8.448;2023-08-06T10:33:45;19.20;99.90
31387;DHT22;69978;50.096;8.448;2023-08-06T10:36:12;19.40;99.90
31387;DHT22;69978;50.096;8.448;2023-08-06T10:38:46;19.50;99.90
31387;DHT22;69978;50.096;8.448;2023-08-06T10:41:32;19.60;99.90
31387;DHT22;69978;50.096;8.448;2023-08-06T10:44:07;19.90;99.90
31387;DHT22;69978;50.096;8.448;2023-08-06T10:46:33;20.10;99.90
31387;DHT22;69978;50.096;8.448;2023-08-06T10:48:59;20.40;99.90
31387;DHT22;69978;50.096;8.448;2023-08-06T10:51:25;20.40;99.90
31387;DHT22;69978;50.096;8.448;2023-08-06T10:53:51;20.40;99.90
31387;DHT22;69978;50.096;8.448;2023-08-06T10:56:17;20.20;99.90
31387;DHT22;69978;50.096;8.448;2023-08-06T10:58:44;19.80;99.90
31387;DHT22;69978;50.096;8.448;2023-08-06T11:01:11;19.50;99.90
31387;DHT22;69978;50.096;8.448;2023-08-06T11:03:37;19.40;99.90
31387;DHT22;69978;50.096;8.448;2023-08-06T11:06:04;19.30;99.90
31387;DHT22;69978;50.096;8.448;2023-08-06T11:08:35;19.30;99.90
31387;DHT22;69978;50.096;8.448;2023-08-06T11:11:11;19.20;99.90
31387;DHT22;69978;50.096;8.448;2023-08-06T11:13:38;19.00;99.90
31387;DHT22;69978;50.096;8.448;2023-08-06T11:16:05;18.70;99.90
31387;DHT22;69978;50.096;8.448;2023-08-06T11:18:34;18.50;99.90
31387;DHT22;69978;50.096;8.448;2023-08-06T11:21:00;18.40;99.90
31387;DHT22;69978;50.096;8.448;2023-08-06T11:23:29;18.60;99.90
31387;DHT22;69978;50.096;8.448;2023-08-06T11:25:56;19.00;99.90
31387;DHT22;69978;50.096;8.448;2023-08-06T11:28:22;19.30;99.90
31387;DHT22;69978;50.096;8.448;2023-08-06T11:30:49;19.10;99.90
31387;DHT22;69978;50.096;8.448;2023-08-06T11:33:26;18.90;99.90
31387;DHT22;69978;50.096;8.448;2023-08-06T11:35:53;19.00;99.90
31387;DHT22;69978;50.096;8.448;2023-08-06T11:38:19;19.00;99.90
31387;DHT22;69978;50.096;8.448;2023-08-06T11:40:45;18.80;99.90
31387;DHT22;69978;50.096;8.448;2023-08-06T11:43:12;19.00;99.90
31387;DHT22;69978;50.096;8.448;2023-08-06T11:45:38;18.70;99.90
31387;DHT22;69978;50.096;8.448;2023-08-06T11:48:04;18.70;99.90
31387;DHT22;69978;50.096;8.448;2023-08-06T11:50:30;18.70;99.90
31387;DHT22;69978;50.096;8.448;2023-08-06T11:53:00;18.70;99.90
31387;DHT22;69978;50.096;8.448;2023-08-06T11:55:27;18.60;99.90
31387;DHT22;69978;50.096;8.448;2023-08-06T11:57:54;18.50;99.90
31387;DHT22;69978;50.096;8.448;2023-08-06T12:00:23;18.30;99.90
31387;DHT22;69978;50.096;8.448;2023-08-06T12:02:49;18.10;99.90
31387;DHT22;69978;50.096;8.448;2023-08-06T12:05:18;18.10;99.90
31387;DHT22;69978;50.096;8.448;2023-08-06T12:07:51;17.90;99.90
31387;DHT22;69978;50.096;8.448;2023-08-06T12:10:18;18.00;99.90
31387;DHT22;69978;50.096;8.448;2023-08-06T12:12:47;17.80;99.90
31387;DHT22;69978;50.096;8.448;2023-08-06T12:15:13;17.90;99.90
31387;DHT22;69978;50.096;8.448;2023-08-06T12:17:39;17.60;99.90
31387;DHT22;69978;50.096;8.448;2023-08-06T12:20:06;17.80;99.90
31387;DHT22;69978;50.096;8.448;2023-08-06T12:22:32;17.90;99.90
31387;DHT22;69978;50.096;8.448;2023-08-06T12:25:01;17.90;99.90
31387;DHT22;69978;50.096;8.448;2023-08-06T12:27:28;17.40;99.90
31387;DHT22;69978;50.096;8.448;2023-08-06T12:29:55;17.50;99.90
31387;DHT22;69978;50.096;8.448;2023-08-06T12:32:21;17.10;99.90
31387;DHT22;69978;50.096;8.448;2023-08-06T12:34:47;17.00;99.90
31387;DHT22;69978;50.096;8.448;2023-08-06T12:37:13;16.80;99.90
31387;DHT22;69978;50.096;8.448;2023-08-06T12:39:38;16.70;99.90
31387;DHT22;69978;50.096;8.448;2023-08-06T12:42:05;16.60;99.90
31387;DHT22;69978;50.096;8.448;2023-08-06T12:44:32;16.60;99.90
31387;DHT22;69978;50.096;8.448;2023-08-06T12:46:58;16.60;99.90
31387;DHT22;69978;50.096;8.448;2023-08-06T12:49:25;16.60;99.90
31387;DHT22;69978;50.096;8.448;2023-08-06T12:51:52;16.70;99.90
31387;DHT22;69978;50.096;8.448;2023-08-06T12:54:19;16.70;99.90
31387;DHT22;69978;50.096;8.448;2023-08-06T12:56:46;16.50;99.90
31387;DHT22;69978;50.096;8.448;2023-08-06T12:59:13;16.50;99.90
31387;DHT22;69978;50.096;8.448;2023-08-06T13:01:38;16.30;99.90
31387;DHT22;69978;50.096;8.448;2023-08-06T13:04:04;16.20;99.90
31387;DHT22;69978;50.096;8.448;2023-08-06T13:06:30;16.20;99.90
31387;DHT22;69978;50.096;8.448;2023-08-06T13:08:56;16.20;99.90
31387;DHT22;69978;50.096;8.448;2023-08-06T13:11:22;16.20;99.90
31387;DHT22;69978;50.096;8.448;2023-08-06T13:13:48;16.00;99.90
31387;DHT22;69978;50.096;8.448;2023-08-06T13:16:14;15.90;99.90
31387;DHT22;69978;50.096;8.448;2023-08-06T13:18:39;15.80;99.90
31387;DHT22;69978;50.096;8.448;2023-08-06T13:21:05;15.70;99.90
31387;DHT22;69978;50.096;8.448;2023-08-06T13:23:30;15.70;99.90
31387;DHT22;69978;50.096;8.448;2023-08-06T13:25:56;15.70;99.90
31387;DHT22;69978;50.096;8.448;2023-08-06T13:28:24;15.70;99.90
31387;DHT22;69978;50.096;8.448;2023-08-06T13:30:50;15.70;99.90
31387;DHT22;69978;50.096;8.448;2023-08-06T13:33:16;15.70;99.90
31387;DHT22;69978;50.096;8.448;2023-08-06T13:35:41;15.80;99.90
31387;DHT22;69978;50.096;8.448;2023-08-06T13:38:07;15.90;99.90
31387;DHT22;69978;50.096;8.448;2023-08-06T13:40:33;15.90;99.90
31387;DHT22;69978;50.096;8.448;2023-08-06T13:42:59;15.90;99.90
31387;DHT22;69978;50.096;8.448;2023-08-06T13:45:25;15.90;99.90
31387;DHT22;69978;50.096;8.448;2023-08-06T13:47:50;16.00;99.90
31387;DHT22;69978;50.096;8.448;2023-08-06T13:50:16;16.00;99.90
31387;DHT22;69978;50.096;8.448;2023-08-06T13:52:42;16.10;99.90
31387;DHT22;69978;50.096;8.448;2023-08-06T13:55:08;16.10;99.90
31387;DHT22;69978;50.096;8.448;2023-08-06T13:57:36;16.10;99.90
31387;DHT22;69978;50.096;8.448;2023-08-06T14:00:02;16.10;99.90
31387;DHT22;69978;50.096;8.448;2023-08-06T14:02:28;16.10;99.90
31387;DHT22;69978;50.096;8.448;2023-08-06T14:04:54;16.10;99.90
31387;DHT22;69978;50.096;8.448;2023-08-06T14:07:20;16.20;99.90
31387;DHT22;69978;50.096;8.448;2023-08-06T14:09:46;16.30;99.90
31387;DHT22;69978;50.096;8.448;2023-08-06T14:12:13;16.40;99.90
31387;DHT22;69978;50.096;8.448;2023-08-06T14:14:39;16.40;99.90
31387;DHT22;69978;50.096;8.448;2023-08-06T14:17:05;16.40;99.90
31387;DHT22;69978;50.096;8.448;2023-08-06T14:19:31;16.40;99.90
31387;DHT22;69978;50.096;8.448;2023-08-06T14:21:57;16.40;99.90
31387;DHT22;69978;50.096;8.448;2023-08-06T14:24:22;16.40;99.90
31387;DHT22;69978;50.096;8.448;2023-08-06T14:26:48;16.40;99.90
31387;DHT22;69978;50.096;8.448;2023-08-06T14:29:14;16.40;99.90
31387;DHT22;69978;50.096;8.448;2023-08-06T14:31:40;16.50;99.90
31387;DHT22;69978;50.096;8.448;2023-08-06T14:34:06;16.50;99.90
31387;DHT22;69978;50.096;8.448;2023-08-06T14:36:32;16.60;99.90
31387;DHT22;69978;50.096;8.448;2023-08-06T14:38:57;16.70;99.90
31387;DHT22;69978;50.096;8.448;2023-08-06T14:41:23;16.70;99.90
31387;DHT22;69978;50.096;8.448;2023-08-06T14:43:50;16.80;99.90
31387;DHT22;69978;50.096;8.448;2023-08-06T14:46:15;16.80;99.90
31387;DHT22;69978;50.096;8.448;2023-08-06T14:48:41;16.90;99.90
31387;DHT22;69978;50.096;8.448;2023-08-06T14:51:08;17.00;99.90
31387;DHT22;69978;50.096;8.448;2023-08-06T14:53:33;17.00;99.90
31387;DHT22;69978;50.096;8.448;2023-08-06T14:55:59;17.10;99.90
31387;DHT22;69978;50.096;8.448;2023-08-06T14:58:24;17.10;99.90
31387;DHT22;69978;50.096;8.448;2023-08-06T15:00:50;17.10;99.90
31387;DHT22;69978;50.096;8.448;2023-08-06T15:03:16;17.00;99.90
31387;DHT22;69978;50.096;8.448;2023-08-06T15:05:48;16.90;99.90
31387;DHT22;69978;50.096;8.448;2023-08-06T15:08:13;16.70;99.90
31387;DHT22;69978;50.096;8.448;2023-08-06T15:10:39;16.80;99.90
31387;DHT22;69978;50.096;8.448;2023-08-06T15:13:05;16.60;99.90
31387;DHT22;69978;50.096;8.448;2023-08-06T15:15:31;16.50;99.90
31387;DHT22;69978;50.096;8.448;2023-08-06T15:17:57;16.50;99.90
31387;DHT22;69978;50.096;8.448;2023-08-06T15:20:23;16.50;99.90
31387;DHT22;69978;50.096;8.448;2023-08-06T15:22:49;16.40;99.90
31387;DHT22;69978;50.096;8.448;2023-08-06T15:25:15;16.30;99.90
31387;DHT22;69978;50.096;8.448;2023-08-06T15:27:40;16.20;99.90
31387;DHT22;69978;50.096;8.448;2023-08-06T15:30:07;16.10;99.90
31387;DHT22;69978;50.096;8.448;2023-08-06T15:32:32;16.10;99.90